White Mountain Summit Weather observations

Data are for 10 minute period ending at time listed.
 Day   Time   Solar   Ave.   Ave.  Ave.  Vector    Max.    Baro.  
  of    of     Rad.   Air    Rel.  Wind   Wind     Wind   Press.  
Year   Day            Temp.  Hum.  Speed  Dir.     Gust           
2015   (PST)   W/m2    F      %     mph   deg.      mph     mb.   
-------------------------------------------------------------------
 144    3:00  2147.0    19   91.8     6     55.6     9.4   999.0 
 144    3:10  2197.0    19   91.8     7     55.6     9.4   999.0 
 144    3:20  2235.0    19   91.8     9     55.6    11.8   999.0 
 144    3:30  2297.0    19   91.7    10     55.6    11.8   999.0 
 144    3:40  2336.0    19   91.8     8     55.6    11.8   999.0 
 144    3:50  2369.0    20   91.9     6     55.6     9.4   999.0 
 144    4:00  2397.0    20   92.0     6     55.6     9.4   999.0 
 144    4:10  2453.0    20   92.1     7     55.6     9.4   999.0 
 144    4:20  2498.0    20   92.0     6     55.6     9.4   999.0 
 144    4:30  2532.0    20   92.0     7     55.6     9.4   999.0 
 144    4:40  2554.0    20   92.0     9     55.6    11.8   999.0 
 144    4:50  2548.0    20   92.0     9     55.6    11.8   999.0 
 144    5:00  1122.0    20   91.9     8     55.6     9.4   999.0 
 144    5:10  1178.0    20   91.9     8     55.6     9.4   999.0 
 144    5:20  2107.0    20   91.9    10     55.6    11.8   999.0 
 144    5:30  541.0    20   91.8    11     55.6    11.8   999.0 
 144    5:40  475.0    20   91.8     9     55.6    11.8   999.0 
 144    5:50   76.0    20   91.9     6     55.6     9.4   999.0 
 144    6:00  1760.0    21   91.9     6     55.6     9.4   999.0 
 144    6:10  2274.0    21   91.9     3     55.6     4.7   999.0 
 144    6:20  2690.0    21   92.0     3     55.6     7.1   999.0 
 144    6:30  1727.0    21   92.1    10     55.6    14.1   999.0 
 144    6:40  2135.0    21   92.1    11     55.6    14.1   999.0 
 144    6:50  1471.0    22   91.9     5     55.6     7.1   999.0 
 144    7:00  2134.0    22   91.9     6     55.6     9.4   999.0 
 144    7:10  1945.0    23   91.9     6     55.6     9.4   999.0 
 144    7:20  721.0    23   92.0     7     55.6    11.8   999.0 
 144    7:30  1000.0    24   91.9     8     55.6     9.4   999.0 
 144    7:40  413.0    24   91.9     8     55.6     9.4   999.0 
 144    7:50  427.0    24   91.9     7     55.6    11.8   999.0 
 144    8:00  349.0    25   92.1     7     55.6    11.8   999.0 
 144    8:10    0.0    25   92.4     8     55.6    11.8   999.0 
 144    8:20    0.0    24   92.6     8     55.6    11.8   999.0 
 144    8:30    0.0    24   92.5     7     55.6     9.4   999.0 
 144    8:40    3.0    24   92.4     8     55.6    11.8   999.0 
 144    8:50   46.0    24   92.1     8     55.6    11.8   999.0 
 144    9:00  212.0    24   92.1     6     55.6     9.4   999.0 
 144    9:10  140.0    25   92.2     6     55.6     9.4   999.0 
 144    9:20  181.0    24   92.4     7     55.6     9.4   999.0 
 144    9:30  180.0    24   92.2     6    294.7     7.1   999.0 
 144    9:40  192.0    24   92.1     5    288.1     7.1   999.0 
 144    9:50  222.0    25   92.0     7    292.8    11.8   999.0 
 144   10:00  256.0    26   92.2     7    307.8     9.4   999.0 
 144   10:10    6.0    26   92.3     5    300.7     7.1   999.0 
 144   10:20    0.0    26   92.5     6    292.0     9.4   999.0 
 144   10:30    0.0    26   92.6    11    289.6    14.1   999.0 
 144   10:40    0.0    26   92.4    10    294.9    14.1   999.0 
 144   10:50    0.0    27   92.4     8    302.8    11.8   999.0 
 144   11:00    0.0    28   92.5     6    318.8     9.4   999.0 
 144   11:10    0.0    29   92.6     6    324.2     9.4   999.0 
 144   11:20  200.0    29   93.1     8    295.6    11.8   999.0 
 144   11:30   74.0    29   93.0     6    298.4     9.4   999.0 
 144   11:40  665.0    30   92.7     5    295.2     9.4   999.0 
 144   11:50  915.0    31   93.2     6    288.3     9.4   999.0 
 144   12:00  1113.0    32   94.0     2    289.3     4.7   999.0 
 144   12:10  639.0    33   94.0     4    317.3     9.4   999.0 
 144   12:20    0.0    33   93.2     9    308.5    14.1   999.0 
 144   12:30    0.0    34   92.1    10    304.7    16.5   999.0 
 144   12:40    0.0    34   91.8    10    289.2    14.1   999.0 
 144   12:50  543.0    35   91.4     8    279.9    16.5   999.0 
 144   13:00  254.0    35   90.6     9    288.5    16.5   999.0 
 144   13:10    0.0    35   90.6    15    282.3    23.5   999.0 
 144   13:20    0.0    35   90.8    13    281.1    21.2   999.0 
 144   13:30    0.0    35   91.4    12    284.5    18.8   999.0 
 144   13:40    0.0    34   92.5    18    275.1    25.9   999.0 
 144   13:50    0.0    33   93.2    16    279.9    21.2   999.0 
 144   14:00    0.0    33   93.2    21    280.7    33.0   999.0 
 144   14:10    0.0    32   93.0    27    273.8    35.3   999.0 
 144   14:20    0.0    30   93.5    28    277.7    35.3   999.0 
 144   14:30    4.0    29   93.3    28    282.1    33.0   999.0 
 144   14:40   11.0    30   92.6    30    279.6    40.0   999.0 
 144   14:50  125.0    30   92.2    31    280.9    42.4   999.0 
 144   15:00   44.0    31   91.3    26    279.8    33.0   999.0 
 144   15:10   15.0    31   91.6    19    278.3    28.2   999.0 
 144   15:20    0.0    31   91.9    23    282.1    33.0   999.0 
 144   15:30    0.0    31   92.4    19    279.7    25.9   999.0 
 144   15:40  545.0    30   92.7    20    281.3    25.9   999.0 
 144   15:50  568.0    30   92.8    15    288.5    25.9   999.0 
 144   16:00   84.0    30   92.8    17    283.1    23.5   999.0 
 144   16:10  346.0    30   93.1    21    271.3    30.6   999.0 
 144   16:20  526.0    29   93.1    20    276.6    28.2   999.0 
 144   16:30  1707.0    29   93.5    30    285.7    47.1   999.0 
 144   16:40  2841.0    28   94.0    32    282.9    47.1   999.0 
 144   16:50  2660.0    28   93.9    24    276.9    35.3   999.0 
 144   17:00  2542.0    28   93.9    22    276.1    30.6   999.0 
 144   17:10  2639.0    27   93.9    25    276.9    42.4   999.0 
 144   17:20  2993.0    28   94.1    29    281.3    42.4   999.0 
 144   17:30  999.0    28   94.3    30    279.4    37.7   999.0 
 144   17:40  2718.0    28   94.4    25    279.0    33.0   999.0 
 144   17:50  2579.0    28   94.5    11    283.9    18.8   999.0 
 144   18:00  441.0    27   94.4     9    296.6    14.1   999.0 
 144   18:10    0.0    27   94.2    13    282.1    18.8   999.0 
 144   18:20    0.0    27   94.1    14    279.8    21.2   999.0 
 144   18:30    0.0    27   94.1    11    278.4    18.8   999.0 
 144   18:40    0.0    26   93.7    13    279.5    18.8   999.0 
 144   18:50    0.0    26   93.4    11    276.0    18.8   999.0 
 144   19:00    0.0    26   93.7    12    279.3    18.8   999.0 
 144   19:10    0.0    26   93.8    13    287.0    21.2   999.0 
 144   19:20    0.0    26   93.8    13    285.2    18.8   999.0 
 144   19:30    0.0    26   93.8    13    292.2    21.2   999.0 
 144   19:40    0.0    25   93.8    13    282.8    18.8   999.0 
 144   19:50    0.0    25   93.8    10    287.4    16.5   999.0 
 144   20:00    0.0    25   93.8    12    294.3    16.5   999.0 
 144   20:10    0.0    25   93.6    12    280.6    16.5   999.0 
 144   20:20    0.0    24   93.3    12    289.7    16.5   999.0 
 144   20:30    0.0    24   93.3    14    308.9    18.8   999.0 
 144   20:40    0.0    24   93.3    10    292.1    18.8   999.0 
 144   20:50    0.0    24   93.2     8    287.8    11.8   999.0 
 144   21:00    0.0    24   93.1    10    288.5    16.5   999.0 
 144   21:10    0.0    24   92.8    12    279.7    16.5   999.0 
 144   21:20    0.0    24   92.5    11    278.0    18.8   999.0 
 144   21:30    0.0    24   92.7    11    285.5    18.8   999.0 
 144   21:40    0.0    24   92.7    10    287.0    16.5   999.0 
 144   21:50    0.0    24   92.6    10    311.5    14.1   999.0 
 144   22:00    0.0    24   92.5     8    310.2    11.8   999.0 
 144   22:10    0.0    24   92.7    13    336.9    18.8   999.0 
 144   22:20    0.0    24   92.9     9    327.7    14.1   999.0 
 144   22:30    0.0    24   93.3    10    298.4    18.8   999.0 
 144   22:40    0.0    24   93.2    14    287.5    21.2   999.0 
 144   22:50    0.0    23   93.1    12    286.4    18.8   999.0 
 144   23:00    0.0    23   93.1    12    285.5    18.8   999.0 
 144   23:10    0.0    23   93.1    10    294.6    18.8   999.0 
 144   23:20    0.0    24   93.2    13    276.9    16.5   999.0 
 144   23:30    0.0    24   93.2    12    276.7    16.5   999.0 
 144   23:40    0.0    24   93.3    11    279.6    16.5   999.0 
 144   23:50    0.0    24   93.3    10    287.2    16.5   999.0 
 145    0:00    0.0    24   93.4     8    301.8    16.5   999.0 
 145    0:10    0.0    24   93.4     7    316.9    11.8   999.0 
 145    0:20    0.0    24   93.4     9    306.4    14.1   999.0 
 145    0:30    0.0    24   93.5     7    316.6     9.4   999.0 
 145    0:40    0.0    23   93.6     8    300.0    11.8   999.0 
 145    0:50    0.0    23   93.3     8    298.9    11.8   999.0 
 145    1:00    0.0    23   93.2     8    285.2     9.4   999.0 
 145    1:10    0.0    23   92.9     8    296.3    11.8   999.0 
 145    1:20    0.0    23   92.9     6    297.5     7.1   999.0 
 145    1:30    0.0    22   92.9     5    296.9     7.1   999.0 
 145    1:40    0.0    22   92.9     8    296.8     9.4   999.0 
 145    1:50    0.0    22   92.8     8    296.7     9.4   999.0 
 145    2:00    0.0    22   92.8     7    296.8     9.4   999.0 
 145    2:10    0.0    22   92.9     8    296.5    11.8   999.0 
 145    2:20    0.0    22   92.6    11    296.1    14.1   999.0 
 145    2:30    0.0    21   92.3    12    295.6    14.1   999.0 
 145    2:40    0.0    21   92.0    11    295.2    14.1   999.0 
 145    2:50    0.0    21   91.8    11    289.2    14.1   999.0 

Return to White Mountain graphs page.


Western Regional Climate Center,wrcc@dri.edu